Terminal Aerodrome Forecast
Issued by NWS

Home | Current Version | Previous Version | Text Only | Print | Product List | Glossary On
Versions: 1 2 3 4 5 6 7 8 9 10 11 12 13 14 15 16
000
FTUS41 KCAR 281127
TAFBHB
TAF
KBHB 281127Z 2812/2912 02015G25KT P6SM OVC025
     FM282000 01015G25KT P6SM -SHRA SCT020 OVC045
     FM290000 34010G20KT P6SM SCT025 OVC050
     FM290600 33010KT P6SM OVC020
      AMD LTD TO CLD VIS AND WIND=

USA.gov is the U.S. government's official web portal to all federal, state and local government web resources and services.